createdAt,value
2019-03-25T00:00:57.598Z,0.60
2019-03-25T00:01:57.590Z,0.60
2019-03-25T00:02:57.597Z,0.80
2019-03-25T00:03:57.573Z,1.10
2019-03-25T00:04:57.556Z,0.60
2019-03-25T00:05:57.540Z,0.60
2019-03-25T00:06:58.457Z,0.50
2019-03-25T00:07:57.542Z,0.60
2019-03-25T00:09:04.894Z,0.60
2019-03-25T00:09:58.507Z,0.90
2019-03-25T00:10:57.485Z,0.70
2019-03-25T00:11:57.494Z,0.50
2019-03-25T00:12:57.477Z,0.90
2019-03-25T00:13:57.490Z,0.50
2019-03-25T00:14:57.467Z,0.60
2019-03-25T00:15:57.446Z,0.60
2019-03-25T00:16:57.417Z,0.50
2019-03-25T00:17:57.411Z,0.50
2019-03-25T00:18:57.431Z,0.20
2019-03-25T00:19:57.394Z,0.60
2019-03-25T00:20:57.378Z,0.60
2019-03-25T00:21:57.364Z,0.90
2019-03-25T00:22:57.356Z,0.40
2019-03-25T00:23:57.346Z,0.50
2019-03-25T00:24:57.357Z,0.70
2019-03-25T00:25:57.320Z,0.70
2019-03-25T00:26:57.309Z,0.80
2019-03-25T00:27:57.298Z,0.60
2019-03-25T00:28:57.298Z,0.60
2019-03-25T00:29:57.279Z,0.50
2019-03-25T00:30:57.297Z,0.70
2019-03-25T00:31:57.254Z,0.50
2019-03-25T00:32:57.238Z,1.00
2019-03-25T00:33:57.239Z,0.50
2019-03-25T00:34:57.222Z,0.50
2019-03-25T00:35:57.215Z,0.70
2019-03-25T00:36:57.209Z,0.70
2019-03-25T00:37:57.185Z,0.60
2019-03-25T00:38:57.176Z,0.50
2019-03-25T00:39:57.171Z,0.50
2019-03-25T00:40:57.167Z,0.70
2019-03-25T00:41:57.140Z,0.70
2019-03-25T00:42:57.127Z,0.40
2019-03-25T00:43:57.117Z,0.60
2019-03-25T00:44:57.102Z,0.50
2019-03-25T00:45:57.109Z,0.50
2019-03-25T00:46:57.093Z,0.60
2019-03-25T00:47:57.069Z,0.60
2019-03-25T00:48:57.063Z,0.60
2019-03-25T00:49:57.059Z,0.60
2019-03-25T00:50:57.037Z,0.70
2019-03-25T00:51:57.051Z,0.50
2019-03-25T00:52:57.023Z,0.70
2019-03-25T00:53:57.034Z,0.60
2019-03-25T00:54:56.995Z,0.50
2019-03-25T00:55:56.985Z,0.50
2019-03-25T00:56:56.971Z,0.80
2019-03-25T00:57:56.973Z,0.40
2019-03-25T00:58:56.961Z,0.70
2019-03-25T00:59:56.951Z,0.30
2019-03-25T01:00:56.934Z,0.60
2019-03-25T01:01:56.920Z,0.90
2019-03-25T01:02:56.943Z,0.80
2019-03-25T01:03:56.893Z,0.50
2019-03-25T01:04:56.878Z,0.60
2019-03-25T01:05:56.871Z,1.20
2019-03-25T01:06:56.866Z,0.80
2019-03-25T01:07:56.877Z,0.40
2019-03-25T01:08:56.869Z,1.00
2019-03-25T01:09:56.826Z,0.60
2019-03-25T01:10:56.818Z,0.70
2019-03-25T01:11:56.843Z,0.50
2019-03-25T01:12:56.839Z,0.60
2019-03-25T01:13:56.794Z,0.50
2019-03-25T01:14:56.782Z,0.90
2019-03-25T01:15:56.764Z,0.80
2019-03-25T01:16:56.751Z,0.50
2019-03-25T01:17:56.755Z,0.60
2019-03-25T01:18:56.735Z,0.60
2019-03-25T01:19:56.716Z,0.60
2019-03-25T01:20:56.712Z,0.30
2019-03-25T01:21:56.698Z,0.50
2019-03-25T01:22:56.732Z,0.70
2019-03-25T01:23:56.707Z,0.70
2019-03-25T01:25:01.758Z,1.10
2019-03-25T01:25:57.654Z,0.60
2019-03-25T01:26:56.638Z,0.70
2019-03-25T01:27:56.632Z,0.60
2019-03-25T01:28:56.616Z,0.60
2019-03-25T01:29:56.622Z,0.60
2019-03-25T01:30:56.589Z,0.70
2019-03-25T01:31:56.583Z,0.70
2019-03-25T01:32:56.575Z,0.40
2019-03-25T01:33:56.560Z,0.50
2019-03-25T01:34:56.584Z,0.80
2019-03-25T01:35:56.547Z,0.60
2019-03-25T01:36:56.535Z,0.80
2019-03-25T01:37:56.517Z,0.70
2019-03-25T01:38:56.503Z,0.40
2019-03-25T01:39:56.504Z,0.70
2019-03-25T01:40:56.500Z,0.70
2019-03-25T01:41:56.478Z,0.50
2019-03-25T01:42:56.470Z,0.70
2019-03-25T01:43:56.482Z,0.80
2019-03-25T01:44:56.439Z,0.90
2019-03-25T01:45:56.451Z,0.40
2019-03-25T01:46:56.416Z,1.00
2019-03-25T01:47:56.408Z,0.90
2019-03-25T01:48:56.396Z,0.70
2019-03-25T01:49:56.388Z,0.90
2019-03-25T01:50:56.410Z,1.10
2019-03-25T01:51:56.388Z,0.80
2019-03-25T01:52:56.372Z,1.10
2019-03-25T01:53:56.347Z,0.60
2019-03-25T01:54:56.330Z,0.50
2019-03-25T01:55:56.316Z,0.50
2019-03-25T01:56:56.344Z,0.70
2019-03-25T01:57:56.300Z,0.80
2019-03-25T01:58:56.289Z,0.50
2019-03-25T01:59:56.279Z,0.70
2019-03-25T02:00:56.283Z,1.00
2019-03-25T02:01:56.257Z,0.90
2019-03-25T02:02:56.257Z,0.70
2019-03-25T02:03:56.232Z,0.70
2019-03-25T02:04:56.223Z,0.50
2019-03-25T02:05:56.214Z,0.50
2019-03-25T02:06:56.208Z,0.40
2019-03-25T02:07:56.201Z,0.80
2019-03-25T02:08:56.180Z,0.70
2019-03-25T02:09:56.166Z,0.50
2019-03-25T02:10:56.168Z,0.80
2019-03-25T02:11:56.160Z,0.60
2019-03-25T02:12:56.205Z,1.00
2019-03-25T02:13:56.119Z,0.50
2019-03-25T02:14:56.120Z,0.80
2019-03-25T02:15:56.101Z,1.10
2019-03-25T02:16:56.103Z,0.60
2019-03-25T02:17:56.091Z,0.80
2019-03-25T02:18:56.061Z,0.50
2019-03-25T02:19:56.136Z,0.50
2019-03-25T02:20:56.050Z,1.20
2019-03-25T02:21:56.043Z,0.60
2019-03-25T02:22:56.216Z,0.40
2019-03-25T02:23:56.015Z,1.00
2019-03-25T02:24:56.045Z,0.30
2019-03-25T02:25:55.991Z,0.50
2019-03-25T02:26:56.001Z,0.60
2019-03-25T02:27:55.972Z,0.70
2019-03-25T02:28:55.957Z,0.50
2019-03-25T02:29:55.951Z,1.10
2019-03-25T02:30:55.985Z,0.50
2019-03-25T02:31:55.918Z,0.50
2019-03-25T02:32:55.910Z,0.70
2019-03-25T02:33:55.898Z,0.50
2019-03-25T02:34:55.898Z,0.60
2019-03-25T02:35:55.897Z,0.80
2019-03-25T02:36:55.864Z,0.70
2019-03-25T02:37:55.854Z,1.10
2019-03-25T02:38:55.868Z,1.00
2019-03-25T02:39:55.876Z,0.30
2019-03-25T02:40:55.859Z,0.60
2019-03-25T02:41:55.807Z,0.70
2019-03-25T02:42:55.807Z,0.50
2019-03-25T02:43:55.800Z,0.50
2019-03-25T02:44:55.778Z,0.80
2019-03-25T02:45:55.768Z,0.60
2019-03-25T02:46:55.780Z,0.80
2019-03-25T02:47:55.745Z,0.40
2019-03-25T02:48:55.729Z,0.60
2019-03-25T02:49:55.718Z,0.70
2019-03-25T02:50:55.710Z,0.60
2019-03-25T02:51:55.714Z,0.60
2019-03-25T02:52:55.683Z,0.80
2019-03-25T02:53:55.672Z,0.70
2019-03-25T02:54:55.657Z,0.70
2019-03-25T02:55:55.653Z,1.30
2019-03-25T02:56:55.648Z,0.60
2019-03-25T02:57:55.623Z,0.70
2019-03-25T02:58:55.615Z,0.60
2019-03-25T02:59:55.600Z,0.80
2019-03-25T03:00:55.602Z,1.10
2019-03-25T03:01:55.615Z,0.90
2019-03-25T03:02:55.571Z,0.70
2019-03-25T03:03:55.561Z,0.90
2019-03-25T03:04:55.547Z,0.50
2019-03-25T03:05:55.535Z,0.80
2019-03-25T03:06:55.522Z,0.90
2019-03-25T03:07:55.524Z,0.80
2019-03-25T03:08:55.513Z,0.70
2019-03-25T03:09:55.492Z,0.80
2019-03-25T03:10:55.476Z,0.90
2019-03-25T03:11:55.467Z,0.80
2019-03-25T03:12:55.483Z,0.60
2019-03-25T03:13:55.448Z,0.70
2019-03-25T03:14:55.433Z,1.20
2019-03-25T03:15:55.453Z,0.80
2019-03-25T03:16:55.414Z,0.60
2019-03-25T03:17:55.413Z,1.00
2019-03-25T03:18:55.420Z,0.60
2019-03-25T03:19:55.591Z,0.90
2019-03-25T03:20:55.414Z,1.20
2019-03-25T03:21:55.370Z,0.90
2019-03-25T03:22:55.411Z,0.70
2019-03-25T03:23:55.346Z,1.00
2019-03-25T03:24:55.342Z,0.40
2019-03-25T03:25:57.878Z,0.60
2019-03-25T03:26:55.315Z,0.80
2019-03-25T03:27:55.330Z,0.90
2019-03-25T03:28:55.287Z,1.40
2019-03-25T03:29:55.293Z,1.40
2019-03-25T03:30:55.285Z,0.80
2019-03-25T03:31:55.291Z,0.80
2019-03-25T03:32:55.235Z,0.80
2019-03-25T03:33:55.254Z,0.90
2019-03-25T03:34:55.233Z,0.80
2019-03-25T03:35:55.215Z,0.60
2019-03-25T03:36:55.187Z,0.70
2019-03-25T03:37:55.179Z,0.50
2019-03-25T03:38:55.181Z,0.80
2019-03-25T03:39:55.163Z,1.30
2019-03-25T03:40:55.165Z,0.50
2019-03-25T03:41:55.128Z,0.60
2019-03-25T03:42:55.132Z,0.80
2019-03-25T03:43:55.111Z,0.90
2019-03-25T03:44:55.104Z,0.80
2019-03-25T03:45:55.107Z,1.00
2019-03-25T03:46:55.089Z,0.80
2019-03-25T03:47:55.062Z,0.70
2019-03-25T03:48:55.065Z,0.80
2019-03-25T03:49:55.054Z,0.60
2019-03-25T03:50:55.072Z,1.00
2019-03-25T03:51:55.033Z,0.90
2019-03-25T03:52:55.019Z,0.90
2019-03-25T03:53:54.997Z,1.40
2019-03-25T03:54:54.985Z,0.80
2019-03-25T03:55:54.977Z,0.60
2019-03-25T03:56:54.980Z,1.00
2019-03-25T03:57:55.924Z,1.00
2019-03-25T03:58:55.919Z,1.10
2019-03-25T03:59:54.927Z,0.90
2019-03-25T04:00:54.925Z,1.00
2019-03-25T04:01:55.473Z,0.80
2019-03-25T04:02:54.902Z,1.30
2019-03-25T04:03:55.882Z,0.90
2019-03-25T04:04:56.473Z,1.20
2019-03-25T04:05:56.518Z,1.10
2019-03-25T04:06:59.405Z,0.90
2019-03-25T04:08:05.212Z,0.90
2019-03-25T04:08:59.032Z,1.40
2019-03-25T04:10:35.639Z,0.80
2019-03-25T04:11:00.919Z,0.70
2019-03-25T04:12:00.595Z,1.10
2019-03-25T04:13:19.870Z,1.00
2019-03-25T07:02:44.687Z,0.40
2019-03-25T07:03:44.616Z,0.50
2019-03-25T07:04:44.571Z,0.60
2019-03-25T07:05:44.621Z,0.40
2019-03-25T07:06:44.523Z,0.70
2019-03-25T07:07:44.516Z,0.40
2019-03-25T07:08:44.525Z,0.40
2019-03-25T07:18:02.583Z,0.50
2019-03-25T07:19:02.628Z,0.50
2019-03-25T07:20:02.429Z,0.50
2019-03-25T07:21:02.420Z,0.40
2019-03-25T07:22:02.419Z,0.60
2019-03-25T07:23:02.307Z,0.50
2019-03-25T07:24:02.359Z,0.30
2019-03-25T07:25:02.376Z,0.20
2019-03-25T07:39:26.847Z,0.20
2019-03-25T07:40:26.960Z,0.20
2019-03-25T07:41:26.740Z,0.50
2019-03-25T07:42:26.727Z,0.70
2019-03-25T07:43:26.698Z,0.20
2019-03-25T07:44:26.665Z,0.50
2019-03-25T07:49:00.173Z,0.50
2019-03-25T07:50:00.017Z,0.30
2019-03-25T07:50:59.988Z,0.30
2019-03-25T07:52:00.099Z,0.30
2019-03-25T07:52:59.960Z,0.40
2019-03-25T07:53:59.897Z,0.50
2019-03-25T07:54:59.868Z,0.40
2019-03-25T07:55:59.862Z,0.50
2019-03-25T07:56:59.882Z,0.80
2019-03-25T07:57:59.846Z,0.50
2019-03-25T07:58:59.809Z,0.30
2019-03-25T07:59:59.877Z,0.60
2019-03-25T08:00:59.811Z,0.30
2019-03-25T08:01:59.796Z,0.30
2019-03-25T08:02:59.795Z,0.40
2019-03-25T08:03:59.755Z,0.30
2019-03-25T08:04:59.770Z,0.60
2019-03-25T08:05:59.748Z,0.30
2019-03-25T08:06:59.745Z,0.40
2019-03-25T08:07:59.772Z,0.30
2019-03-25T08:09:04.036Z,0.30
2019-03-25T08:09:59.709Z,0.40
2019-03-25T08:11:07.363Z,0.30
2019-03-25T08:12:07.340Z,0.30
2019-03-25T08:13:07.459Z,0.30
2019-03-25T08:14:08.511Z,0.40
2019-03-25T08:15:07.314Z,0.30
2019-03-25T08:16:07.303Z,0.40
2019-03-25T08:16:59.711Z,0.20
2019-03-25T08:19:13.413Z,0.40
2019-03-25T08:20:21.026Z,0.50
2019-03-25T08:21:20.960Z,0.40
2019-03-25T08:22:20.979Z,0.40
2019-03-25T08:23:20.920Z,0.50
2019-03-25T08:24:23.268Z,0.30
2019-03-25T08:26:27.151Z,0.50
2019-03-25T08:27:27.100Z,0.60
2019-03-25T08:28:27.001Z,0.30
2019-03-25T08:29:27.046Z,0.80
2019-03-25T08:30:26.973Z,0.40
2019-03-25T08:31:26.956Z,0.40
2019-03-25T08:36:51.737Z,0.60
2019-03-25T08:37:51.645Z,0.60
2019-03-25T08:38:51.638Z,0.40
2019-03-25T08:39:51.723Z,0.40
2019-03-25T08:40:51.567Z,0.20
2019-03-25T08:41:51.589Z,0.30
2019-03-25T08:42:51.562Z,0.30
2019-03-25T08:44:01.427Z,0.40
2019-03-25T08:45:00.323Z,0.20
2019-03-25T08:45:59.204Z,0.20
2019-03-25T08:47:00.607Z,0.40
2019-03-25T08:47:59.115Z,0.40
2019-03-25T08:48:59.110Z,0.40
2019-03-25T08:50:01.636Z,0.30
2019-03-25T08:52:41.253Z,0.20
2019-03-25T08:55:16.178Z,0.20
2019-03-25T08:56:15.543Z,0.20
2019-03-25T08:57:15.739Z,0.10
2019-03-25T08:58:15.510Z,0.10
2019-03-25T08:59:25.434Z,0.10
2019-03-25T09:02:28.133Z,0.30
2019-03-25T09:03:28.136Z,0.30
2019-03-25T09:04:27.992Z,0.20
2019-03-25T09:05:27.995Z,0.20
2019-03-25T09:06:27.947Z,0.30
2019-03-25T09:07:27.934Z,0.30
2019-03-25T09:08:37.854Z,0.20
2019-03-25T09:09:28.095Z,0.20
2019-03-25T09:10:28.135Z,0.10
2019-03-25T09:11:28.148Z,0.20
2019-03-25T09:12:27.850Z,0.20
2019-03-25T09:13:27.943Z,0.30
2019-03-25T09:14:27.917Z,0.20
2019-03-25T09:15:27.859Z,0.20
2019-03-25T09:16:27.878Z,0.20
2019-03-25T09:28:59.476Z,0.40
2019-03-25T09:29:59.381Z,0.40
2019-03-25T09:30:59.294Z,0.40
2019-03-25T09:31:59.268Z,0.30
2019-03-25T09:32:59.200Z,0.30
2019-03-25T09:33:59.334Z,0.30
2019-03-25T09:50:44.125Z,0.50
2019-03-25T09:51:37.226Z,0.50
2019-03-25T09:52:38.709Z,0.50
2019-03-25T09:53:37.535Z,0.40
2019-03-25T09:54:37.149Z,0.60
2019-03-25T09:55:37.160Z,0.40
2019-03-25T09:56:37.301Z,0.40
2019-03-25T10:05:04.315Z,0.50
2019-03-25T10:06:04.362Z,0.50
2019-03-25T10:07:04.029Z,0.40
2019-03-25T10:08:04.076Z,0.50
2019-03-25T10:09:03.948Z,0.40
2019-03-25T10:10:03.937Z,0.40
2019-03-25T10:11:03.917Z,0.30
2019-03-25T10:19:21.536Z,0.70
2019-03-25T10:20:21.168Z,0.20
2019-03-25T10:21:20.959Z,0.30
2019-03-25T10:22:20.698Z,0.20
2019-03-25T10:23:20.672Z,0.20
2019-03-25T10:24:27.612Z,0.30
2019-03-25T10:25:22.860Z,0.40
2019-03-25T10:26:20.548Z,0.10
2019-03-25T10:27:20.563Z,0.20
2019-03-25T10:28:20.526Z,0.10
2019-03-25T10:29:20.524Z,0.50
2019-03-25T10:30:20.508Z,0.20
2019-03-25T10:31:20.525Z,0.30
2019-03-25T10:32:20.590Z,0.20
2019-03-25T10:33:20.474Z,0.40
2019-03-25T10:34:20.457Z,0.30
2019-03-25T10:35:20.447Z,0.10
2019-03-25T10:36:20.443Z,0.20
2019-03-25T10:37:20.456Z,0.30
2019-03-25T10:38:20.413Z,0.10
2019-03-25T10:39:20.397Z,0.10
2019-03-25T10:40:20.394Z,0.20
2019-03-25T10:41:20.501Z,0.20
2019-03-25T10:42:20.399Z,0.20
2019-03-25T10:43:20.362Z,0.50
2019-03-25T10:44:20.437Z,0.30
2019-03-25T10:45:20.326Z,0.40
2019-03-25T10:46:20.371Z,0.40
2019-03-25T10:47:20.425Z,0.30
2019-03-25T10:48:20.343Z,0.10
2019-03-25T10:49:20.349Z,0.20
2019-03-25T10:50:20.283Z,0.10
2019-03-25T10:51:20.283Z,0.50
2019-03-25T10:52:20.262Z,0.10
2019-03-25T10:53:20.261Z,0.30
2019-03-25T10:54:20.292Z,0.10
2019-03-25T10:55:20.528Z,0.20
2019-03-25T10:56:20.270Z,0.20
2019-03-25T10:57:20.671Z,0.20
2019-03-25T11:10:54.415Z,0.10
2019-03-25T11:11:54.362Z,0.10
2019-03-25T11:12:54.095Z,0.30
2019-03-25T11:13:54.485Z,0.20
2019-03-25T11:14:54.336Z,0.40
2019-03-25T11:15:53.989Z,0.30
2019-03-25T11:17:21.292Z,0.10
2019-03-25T11:18:00.427Z,0.10
2019-03-25T11:26:21.345Z,0.10
2019-03-25T11:27:21.287Z,0.10
2019-03-25T11:28:21.189Z,0.20
2019-03-25T11:29:21.250Z,0.20
2019-03-25T11:30:21.146Z,0.10
2019-03-25T11:31:21.111Z,0.10
2019-03-25T11:32:21.139Z,0.10
2019-03-25T11:33:21.093Z,0.20
2019-03-25T11:34:21.081Z,0.30
2019-03-25T11:35:21.065Z,0.20
2019-03-25T11:36:21.043Z,0.30
2019-03-25T11:37:21.047Z,0.40
2019-03-25T11:38:21.098Z,0.10
2019-03-25T11:39:21.012Z,0.20
2019-03-25T11:40:21.007Z,0.20
2019-03-25T11:41:20.990Z,0.20
2019-03-25T11:42:20.990Z,0.10
2019-03-25T11:43:20.995Z,0.20
2019-03-25T11:44:20.967Z,0.20
2019-03-25T11:45:20.948Z,0.10
2019-03-25T11:46:20.960Z,0.20
2019-03-25T11:47:20.921Z,0.20
2019-03-25T11:48:20.912Z,0.20
2019-03-25T11:49:20.909Z,0.20
2019-03-25T11:50:20.890Z,0.10
2019-03-25T11:51:20.917Z,0.20
2019-03-25T11:52:20.869Z,0.20
2019-03-25T11:53:20.853Z,0.20
2019-03-25T11:54:20.846Z,0.10
2019-03-25T11:55:20.832Z,0.20
2019-03-25T11:56:20.851Z,0.10
2019-03-25T11:57:20.820Z,0.10
2019-03-25T11:58:20.801Z,0.20
2019-03-25T11:59:20.812Z,0.20
2019-03-25T12:00:20.781Z,0.20
2019-03-25T12:01:20.769Z,0.10
2019-03-25T12:02:20.776Z,0.20
2019-03-25T12:03:20.755Z,0.10
2019-03-25T12:04:20.759Z,0.20
2019-03-25T12:05:20.728Z,0.30
2019-03-25T12:06:20.713Z,0.30
2019-03-25T12:07:20.760Z,0.40
2019-03-25T12:08:20.690Z,0.10
2019-03-25T12:09:20.677Z,0.20
2019-03-25T12:10:20.754Z,0.30
2019-03-25T12:11:20.651Z,0.10
2019-03-25T12:12:20.659Z,0.10
2019-03-25T12:13:20.641Z,0.30
2019-03-25T12:14:20.635Z,0.30
2019-03-25T12:15:20.616Z,0.10
2019-03-25T12:16:20.623Z,0.10
2019-03-25T12:17:20.592Z,0.20
2019-03-25T12:18:20.619Z,0.20
2019-03-25T12:19:20.564Z,0.30
2019-03-25T12:20:20.602Z,0.20
2019-03-25T12:21:20.542Z,0.50
2019-03-25T12:22:20.560Z,0.20
2019-03-25T12:23:26.390Z,0.10
2019-03-25T12:24:21.579Z,0.20
2019-03-25T12:25:20.523Z,0.30
2019-03-25T12:26:20.546Z,0.20
2019-03-25T12:27:20.530Z,0.30
2019-03-25T12:28:20.882Z,0.20
2019-03-25T12:29:29.676Z,0.20
2019-03-25T12:30:21.442Z,0.10
2019-03-25T12:31:20.451Z,0.10
2019-03-25T12:32:20.459Z,0.20
2019-03-25T12:33:20.485Z,0.20
2019-03-25T12:34:20.494Z,0.10
2019-03-25T12:35:20.432Z,0.10
2019-03-25T12:36:20.404Z,0.30
2019-03-25T12:37:20.360Z,0.10
2019-03-25T12:38:20.381Z,0.20
2019-03-25T12:39:20.704Z,0.20
2019-03-25T12:40:20.328Z,0.10
2019-03-25T12:41:20.315Z,0.10
2019-03-25T12:42:20.393Z,0.10
2019-03-25T12:43:20.412Z,0.30
2019-03-25T12:44:20.422Z,0.20
2019-03-25T12:45:20.346Z,0.20
2019-03-25T12:46:20.364Z,0.10
2019-03-25T12:47:20.365Z,0.10
2019-03-25T12:48:20.234Z,0.30
2019-03-25T12:49:20.228Z,0.10
2019-03-25T12:50:20.332Z,0.00
2019-03-25T12:51:20.267Z,0.30
2019-03-25T12:52:20.232Z,0.10
2019-03-25T12:53:20.224Z,0.10
2019-03-25T12:54:20.233Z,0.10
2019-03-25T12:55:20.176Z,0.10
2019-03-25T12:56:20.148Z,0.10
2019-03-25T12:57:20.214Z,0.20
2019-03-25T12:58:20.338Z,0.10
2019-03-25T12:59:20.158Z,0.10
2019-03-25T13:00:20.201Z,0.10
2019-03-25T13:01:20.092Z,0.10
2019-03-25T13:02:20.248Z,0.30
2019-03-25T13:03:21.505Z,0.20
2019-03-25T13:04:20.115Z,0.20
2019-03-25T13:05:20.119Z,0.40
2019-03-25T13:06:20.346Z,0.20
2019-03-25T13:07:20.053Z,0.10
2019-03-25T13:08:20.248Z,0.20
2019-03-25T13:09:20.010Z,0.10
2019-03-25T13:10:20.027Z,0.20
2019-03-25T13:11:20.058Z,0.20
2019-03-25T13:12:19.975Z,0.30
2019-03-25T13:13:19.967Z,0.20
2019-03-25T13:14:19.981Z,0.20
2019-03-25T13:15:20.084Z,0.10
2019-03-25T13:16:20.001Z,0.20
2019-03-25T13:17:19.901Z,0.20
2019-03-25T13:18:19.940Z,0.40
2019-03-25T13:19:19.945Z,0.00
2019-03-25T13:20:19.911Z,0.20
2019-03-25T13:21:19.873Z,0.10
2019-03-25T13:22:19.904Z,0.20
2019-03-25T13:23:20.012Z,0.10
2019-03-25T13:24:19.883Z,0.50
2019-03-25T13:25:19.883Z,0.20
2019-03-25T13:26:19.874Z,0.20
2019-03-25T13:27:19.866Z,0.20
2019-03-25T13:28:19.844Z,0.20
2019-03-25T13:29:19.816Z,0.30
2019-03-25T13:30:19.981Z,0.10
2019-03-25T13:31:19.845Z,0.20
2019-03-25T13:32:19.830Z,0.10
2019-03-25T13:33:19.773Z,0.10
2019-03-25T13:34:19.741Z,0.10
2019-03-25T13:35:19.825Z,0.60
2019-03-25T13:36:19.735Z,0.30
2019-03-25T13:37:19.868Z,0.20
2019-03-25T13:38:19.820Z,0.10
2019-03-25T13:39:19.692Z,0.50
2019-03-25T13:40:19.835Z,0.30
2019-03-25T13:41:19.723Z,0.10
2019-03-25T13:42:19.767Z,0.10
2019-03-25T13:43:19.624Z,0.10
2019-03-25T13:44:19.659Z,0.10
2019-03-25T13:45:19.646Z,0.10
2019-03-25T13:46:19.699Z,0.10
2019-03-25T13:47:19.806Z,0.20
2019-03-25T13:48:19.567Z,0.30
2019-03-25T13:49:19.606Z,0.20
2019-03-25T13:50:20.231Z,0.10
2019-03-25T13:51:19.541Z,0.10
2019-03-25T13:52:19.672Z,0.10
2019-03-25T13:53:19.506Z,0.10
2019-03-25T13:54:19.856Z,0.40
2019-03-25T13:55:19.514Z,0.40
2019-03-25T13:56:19.534Z,0.10
2019-03-25T13:57:21.453Z,0.30
2019-03-25T13:58:19.671Z,0.20
2019-03-25T13:59:19.461Z,0.10
2019-03-25T14:00:19.465Z,0.20
2019-03-25T14:01:52.624Z,0.10
2019-03-25T14:02:20.791Z,0.10
2019-03-25T14:03:50.153Z,0.20
2019-03-25T14:04:19.388Z,0.10
2019-03-25T14:05:19.373Z,0.20
2019-03-25T14:06:19.381Z,0.20
2019-03-25T14:07:19.511Z,0.20
2019-03-25T14:08:19.373Z,0.10
2019-03-25T14:09:19.365Z,0.10
2019-03-25T14:10:19.324Z,0.10
2019-03-25T14:11:19.296Z,0.20
2019-03-25T14:12:19.456Z,0.20
2019-03-25T14:13:19.284Z,0.40
2019-03-25T14:14:19.292Z,0.20
2019-03-25T14:15:19.250Z,0.30
2019-03-25T14:16:19.266Z,0.30
2019-03-25T14:17:19.239Z,0.10
2019-03-25T14:18:19.232Z,0.10
2019-03-25T14:19:19.246Z,0.10
2019-03-25T14:20:19.202Z,0.60
2019-03-25T14:21:19.207Z,0.20
2019-03-25T14:22:19.213Z,0.20
2019-03-25T14:23:19.167Z,0.20
2019-03-25T14:24:19.191Z,0.10
2019-03-25T14:25:19.134Z,0.30
2019-03-25T14:26:19.125Z,0.20
2019-03-25T14:27:19.117Z,0.10
2019-03-25T14:28:19.102Z,0.20
2019-03-25T14:29:19.106Z,0.30
2019-03-25T14:30:19.125Z,0.10
2019-03-25T14:31:19.069Z,0.20
2019-03-25T14:32:19.072Z,0.30
2019-03-25T14:33:19.050Z,0.10
2019-03-25T14:34:19.066Z,0.10
2019-03-25T14:35:19.028Z,0.20
2019-03-25T14:36:19.059Z,0.10
2019-03-25T14:37:19.009Z,0.40
2019-03-25T14:38:19.028Z,0.10
2019-03-25T14:39:18.983Z,0.30
2019-03-25T14:40:18.982Z,0.30
2019-03-25T14:41:18.957Z,0.30
2019-03-25T14:42:18.964Z,0.10
2019-03-25T14:43:18.943Z,0.10
2019-03-25T14:44:18.931Z,0.10
2019-03-25T14:45:26.393Z,0.10
2019-03-25T14:46:19.921Z,0.20
2019-03-25T14:47:18.896Z,0.30
2019-03-25T14:48:18.911Z,0.10
2019-03-25T14:49:18.876Z,0.10
2019-03-25T14:50:18.853Z,0.20
2019-03-25T14:51:18.860Z,0.10
2019-03-25T14:52:18.835Z,0.10
2019-03-25T14:53:18.843Z,0.10
2019-03-25T14:54:18.823Z,0.30
2019-03-25T14:55:18.816Z,0.10
2019-03-25T14:56:18.784Z,0.00
2019-03-25T14:57:18.816Z,0.10
2019-03-25T14:58:18.781Z,0.30
2019-03-25T14:59:18.764Z,0.20
2019-03-25T15:00:25.068Z,0.20
2019-03-25T15:01:19.738Z,0.30
2019-03-25T15:02:18.742Z,0.30
2019-03-25T15:03:18.748Z,0.20
2019-03-25T15:04:18.718Z,0.20
2019-03-25T15:05:18.701Z,0.20
2019-03-25T15:06:18.721Z,0.20
2019-03-25T15:07:18.667Z,0.10
2019-03-25T15:08:18.657Z,0.10
2019-03-25T15:09:18.706Z,0.20
2019-03-25T15:10:18.635Z,0.20
2019-03-25T15:11:26.283Z,0.20
2019-03-25T15:12:18.702Z,0.10
2019-03-25T15:13:18.718Z,0.10
2019-03-25T15:14:18.666Z,0.10
2019-03-25T15:15:18.729Z,0.20
2019-03-25T15:16:18.604Z,0.10
2019-03-25T15:17:18.559Z,0.30
2019-03-25T15:18:18.546Z,0.10
2019-03-25T15:19:18.537Z,0.20
2019-03-25T15:20:18.532Z,0.10
2019-03-25T15:21:18.531Z,0.20
2019-03-25T15:22:18.506Z,0.20
2019-03-25T15:23:18.509Z,0.20
2019-03-25T15:24:18.530Z,0.10
2019-03-25T15:25:18.484Z,0.10
2019-03-25T15:26:18.455Z,0.10
2019-03-25T15:27:18.469Z,0.20
2019-03-25T15:28:18.435Z,0.10
2019-03-25T15:29:18.430Z,0.20
2019-03-25T15:30:18.482Z,0.20
2019-03-25T15:31:18.417Z,0.20
2019-03-25T15:32:18.737Z,0.40
2019-03-25T15:33:18.421Z,0.20
2019-03-25T15:34:18.376Z,0.10
2019-03-25T15:35:18.361Z,0.10
2019-03-25T15:36:18.403Z,0.40
2019-03-25T15:37:18.327Z,0.40
2019-03-25T15:38:18.315Z,0.10
2019-03-25T15:39:18.318Z,0.20
2019-03-25T15:40:18.316Z,0.10
2019-03-25T15:41:18.292Z,0.20
2019-03-25T15:42:18.302Z,0.30
2019-03-25T15:43:18.280Z,0.10
2019-03-25T15:44:18.246Z,0.40
2019-03-25T15:45:18.248Z,0.10
2019-03-25T15:46:18.233Z,0.10
2019-03-25T15:47:18.276Z,0.10
2019-03-25T15:48:18.295Z,0.20
2019-03-25T15:49:18.250Z,0.20
2019-03-25T15:50:18.210Z,0.10
2019-03-25T15:51:18.206Z,0.30
2019-03-25T15:52:18.174Z,0.30
2019-03-25T15:53:18.166Z,0.20
2019-03-25T15:54:18.155Z,0.20
2019-03-25T15:55:18.129Z,0.30
2019-03-25T15:56:18.140Z,0.20
2019-03-25T15:57:18.119Z,0.20
2019-03-25T15:58:25.963Z,0.20
2019-03-25T15:59:19.140Z,0.20
2019-03-25T16:00:18.070Z,0.20
2019-03-25T16:01:18.073Z,0.10
2019-03-25T16:02:18.048Z,0.20
2019-03-25T16:03:18.053Z,0.10
2019-03-25T16:04:18.035Z,0.20
2019-03-25T16:05:18.097Z,0.20
2019-03-25T16:06:18.006Z,0.30
2019-03-25T16:07:18.066Z,0.10
2019-03-25T16:08:17.994Z,0.30
2019-03-25T16:09:17.971Z,0.10
2019-03-25T16:10:17.978Z,0.10
2019-03-25T16:11:17.947Z,0.10
2019-03-25T16:12:17.937Z,0.20
2019-03-25T16:13:18.033Z,0.00
2019-03-25T16:14:17.923Z,0.10
2019-03-25T16:15:18.023Z,0.10
2019-03-25T16:16:17.896Z,0.30
2019-03-25T16:17:17.879Z,0.20
2019-03-25T16:18:17.939Z,0.10
2019-03-25T16:19:17.858Z,0.10
2019-03-25T16:20:17.854Z,0.10
2019-03-25T16:21:17.902Z,0.40
2019-03-25T16:22:17.837Z,0.10
2019-03-25T16:23:17.840Z,0.10
2019-03-25T16:24:17.807Z,0.10
2019-03-25T16:25:17.812Z,0.10
2019-03-25T16:26:17.794Z,0.20
2019-03-25T16:27:17.830Z,0.10
2019-03-25T16:28:17.770Z,0.10
2019-03-25T16:29:18.131Z,0.30
2019-03-25T16:30:17.744Z,0.10
2019-03-25T16:31:17.761Z,0.20
2019-03-25T16:32:17.719Z,0.10
2019-03-25T16:33:18.259Z,0.10
2019-03-25T16:34:17.710Z,0.30
2019-03-25T16:35:17.705Z,0.20
2019-03-25T16:36:17.687Z,0.10
2019-03-25T16:37:17.671Z,0.20
2019-03-25T16:38:17.774Z,0.10
2019-03-25T16:39:17.684Z,0.20
2019-03-25T16:40:18.948Z,0.20
2019-03-25T16:41:17.808Z,0.20
2019-03-25T16:42:17.933Z,0.30
2019-03-25T16:43:17.725Z,0.20
2019-03-25T16:44:17.654Z,0.20
2019-03-25T16:45:17.637Z,0.10
2019-03-25T16:46:17.721Z,0.20
2019-03-25T16:47:17.785Z,0.10
2019-03-25T16:48:17.596Z,0.10
2019-03-25T16:49:17.629Z,0.30
2019-03-25T16:50:17.551Z,0.20
2019-03-25T16:51:17.569Z,0.20
2019-03-25T16:52:17.613Z,0.10
2019-03-25T16:53:17.551Z,0.10
2019-03-25T16:54:17.486Z,0.20
2019-03-25T16:55:17.453Z,0.20
2019-03-25T16:56:17.496Z,0.10
2019-03-25T16:57:17.463Z,0.10
2019-03-25T16:58:17.434Z,0.10
2019-03-25T16:59:17.464Z,0.20
2019-03-25T17:00:26.945Z,0.20
2019-03-25T17:01:18.387Z,0.30
2019-03-25T17:02:17.523Z,0.60
2019-03-25T17:03:17.360Z,0.60
2019-03-25T17:04:17.380Z,0.20
2019-03-25T17:05:17.346Z,1.10
2019-03-25T17:06:17.348Z,0.60
2019-03-25T17:08:39.301Z,0.50
2019-03-25T17:09:39.329Z,0.50
2019-03-25T17:10:39.160Z,0.40
2019-03-25T17:11:39.073Z,0.30
2019-03-25T17:12:39.089Z,0.40
2019-03-25T17:15:06.268Z,1.10
2019-03-25T17:16:06.208Z,1.00
2019-03-25T17:17:06.149Z,0.90
2019-03-25T17:18:06.022Z,0.70
2019-03-25T17:19:05.998Z,1.00
2019-03-25T17:20:06.061Z,0.60
2019-03-25T17:21:06.051Z,0.70
2019-03-25T17:22:05.963Z,1.10
2019-03-25T17:23:05.963Z,0.30
2019-03-25T17:24:05.933Z,0.70
2019-03-25T17:25:05.922Z,0.40
2019-03-25T17:26:05.968Z,0.40
2019-03-25T17:27:34.586Z,0.40
2019-03-25T19:00:38.185Z,0.30
2019-03-25T19:01:58.738Z,0.30
2019-03-25T19:02:38.720Z,0.30
2019-03-25T19:03:42.072Z,0.30
2019-03-25T19:04:53.341Z,0.20
2019-03-25T19:05:35.855Z,0.50
2019-03-25T19:06:40.429Z,0.30
2019-03-25T19:07:37.224Z,0.30
2019-03-25T19:08:41.897Z,0.30
2019-03-25T19:10:05.046Z,0.50
2019-03-25T19:10:38.040Z,0.40
2019-03-25T19:49:17.617Z,0.70
2019-03-25T19:50:27.809Z,0.70
2019-03-25T19:51:15.081Z,0.20
2019-03-25T20:10:06.386Z,0.40
2019-03-25T20:11:03.790Z,0.40
2019-03-25T20:12:08.750Z,0.30
2019-03-25T20:30:01.842Z,0.70
2019-03-25T20:30:59.931Z,0.80
2019-03-25T20:32:02.085Z,0.50
2019-03-25T20:33:23.128Z,0.40
2019-03-25T20:34:10.356Z,0.50
2019-03-25T20:36:02.086Z,0.40